createdAt,value
2023-01-28T00:00:26.380Z,1.3
2023-01-28T00:01:40.722Z,1.4
2023-01-28T00:02:54.983Z,1.1
2023-01-28T00:04:09.273Z,1.1
2023-01-28T00:05:23.674Z,1.2
2023-01-28T00:06:38.004Z,1.2
2023-01-28T00:07:52.288Z,1.3
2023-01-28T00:09:06.556Z,1.6
2023-01-28T00:10:20.969Z,1.4
2023-01-28T00:11:35.297Z,1.3
2023-01-28T00:12:49.571Z,1
2023-01-28T00:14:03.909Z,1.3
2023-01-28T00:15:18.327Z,1.4
2023-01-28T00:16:32.654Z,1.1
2023-01-28T00:19:00.285Z,1.3
2023-01-28T00:20:14.692Z,1.4
2023-01-28T00:21:29.027Z,1.5
2023-01-28T00:22:43.306Z,1.5
2023-01-28T00:23:57.578Z,1.8
2023-01-28T00:26:26.320Z,1
2023-01-28T00:27:40.598Z,1.8
2023-01-28T00:28:54.875Z,1.4
2023-01-28T00:30:09.294Z,1.2
2023-01-28T00:31:23.621Z,1.3
2023-01-28T00:32:37.891Z,1.7
2023-01-28T00:33:52.179Z,1.4
2023-01-28T00:35:06.587Z,1.6
2023-01-28T00:36:20.911Z,1.2
2023-01-28T00:37:35.188Z,1.1
2023-01-28T00:38:49.462Z,1.3
2023-01-28T00:41:18.204Z,1.2
2023-01-28T00:42:32.481Z,1.4
2023-01-28T00:43:46.763Z,1.6
2023-01-28T00:45:01.176Z,1.4
2023-01-28T00:46:15.501Z,1.4
2023-01-28T00:47:29.778Z,1.3
2023-01-28T00:48:44.117Z,1.1
2023-01-28T00:49:58.514Z,1.6
2023-01-28T00:51:12.850Z,1.5
2023-01-28T00:52:26.204Z,1.4
2023-01-28T00:53:40.488Z,1.5
2023-01-28T00:54:54.896Z,1.3
2023-01-28T00:56:09.233Z,1.7
2023-01-28T00:57:23.507Z,1.4
2023-01-28T00:58:37.794Z,1.7
2023-01-28T00:59:52.192Z,1.5
2023-01-28T01:01:06.528Z,1.4
2023-01-28T01:02:20.794Z,2
2023-01-28T01:03:35.086Z,1.5
2023-01-28T01:04:49.489Z,1.6
2023-01-28T01:06:03.809Z,1.7
2023-01-28T01:07:18.083Z,1.4
2023-01-28T01:08:32.383Z,1.5
2023-01-28T01:09:46.784Z,1.5
2023-01-28T01:11:01.099Z,1.5
2023-01-28T01:12:15.379Z,1.3
2023-01-28T01:13:29.658Z,1.2
2023-01-28T01:14:44.077Z,1.7
2023-01-28T01:15:58.400Z,1.1
2023-01-28T01:17:12.686Z,1.4
2023-01-28T01:18:26.948Z,1.9
2023-01-28T01:19:41.368Z,1.4
2023-01-28T01:20:55.693Z,1.6
2023-01-28T01:22:09.979Z,1.6
2023-01-28T01:23:24.308Z,1.7
2023-01-28T01:24:38.726Z,1.9
2023-01-28T01:25:53.050Z,1.8
2023-01-28T01:27:06.405Z,1.3
2023-01-28T01:28:20.678Z,1.6
2023-01-28T01:29:35.089Z,1.7
2023-01-28T01:30:49.405Z,1.7
2023-01-28T01:33:17.980Z,1.6
2023-01-28T01:34:32.389Z,2.2
2023-01-28T01:35:46.700Z,1.7
2023-01-28T01:37:00.988Z,1.9
2023-01-28T01:38:15.261Z,1.3
2023-01-28T01:39:29.682Z,1.5
2023-01-28T01:40:44.000Z,1.3
2023-01-28T01:41:58.277Z,1.6
2023-01-28T01:43:12.559Z,1.5
2023-01-28T01:45:41.290Z,1.1
2023-01-28T01:46:55.570Z,1.5
2023-01-28T01:48:09.845Z,1.4
2023-01-28T01:49:24.267Z,1.7
2023-01-28T01:50:38.584Z,1.5
2023-01-28T01:51:52.871Z,1.5
2023-01-28T01:53:07.137Z,1.8
2023-01-28T01:54:21.561Z,1.8
2023-01-28T01:55:35.877Z,1.1
2023-01-28T01:56:50.155Z,1.5
2023-01-28T01:58:04.497Z,1.3
2023-01-28T02:00:33.246Z,1.4
2023-01-28T02:01:46.580Z,1.5
2023-01-28T02:03:00.875Z,1.4
2023-01-28T02:04:15.275Z,1.8
2023-01-28T02:06:43.887Z,1.8
2023-01-28T02:07:58.165Z,1.4
2023-01-28T02:09:12.580Z,1.4
2023-01-28T02:10:26.887Z,1.6
2023-01-28T02:11:41.183Z,2.5
2023-01-28T02:12:55.465Z,1.5
2023-01-28T02:14:09.858Z,1
2023-01-28T02:15:24.186Z,1.5
2023-01-28T02:16:38.463Z,1.3
2023-01-28T02:17:52.755Z,1.6
2023-01-28T02:19:07.158Z,1.9
2023-01-28T02:20:21.471Z,1.6
2023-01-28T02:21:35.755Z,1.7
2023-01-28T02:22:50.043Z,1.4
2023-01-28T02:24:04.453Z,1.3
2023-01-28T02:25:18.778Z,1.3
2023-01-28T02:27:47.328Z,1.2
2023-01-28T02:29:01.750Z,1.6
2023-01-28T02:30:16.069Z,1.6
2023-01-28T02:31:30.343Z,1.8
2023-01-28T02:32:44.687Z,1.5
2023-01-28T02:33:59.082Z,1.2
2023-01-28T02:35:13.429Z,1.6
2023-01-28T02:36:26.807Z,1.3
2023-01-28T02:37:40.167Z,1.3
2023-01-28T02:38:54.489Z,1.4
2023-01-28T02:40:08.780Z,1.7
2023-01-28T02:41:23.047Z,1.5
2023-01-28T02:42:37.460Z,1.7
2023-01-28T02:43:51.787Z,1.2
2023-01-28T02:45:06.057Z,1.2
2023-01-28T02:46:20.338Z,1.5
2023-01-28T02:47:34.757Z,1.4
2023-01-28T02:48:49.076Z,1.7
2023-01-28T02:50:03.358Z,1.9
2023-01-28T02:51:17.633Z,1.5
2023-01-28T02:52:32.052Z,1.5
2023-01-28T02:53:46.373Z,1.7
2023-01-28T02:55:00.653Z,1.5
2023-01-28T02:56:14.933Z,1.6
2023-01-28T02:57:29.333Z,1.9
2023-01-28T02:58:43.669Z,1.5
2023-01-28T02:59:57.946Z,1.3
2023-01-28T03:01:12.231Z,1.4
2023-01-28T03:02:26.623Z,1.5
2023-01-28T03:03:40.956Z,1.7
2023-01-28T03:04:55.241Z,1.4
2023-01-28T03:06:09.511Z,1.5
2023-01-28T03:07:23.918Z,1.5
2023-01-28T03:08:38.307Z,1.8
2023-01-28T03:09:51.696Z,1.6
2023-01-28T03:11:06.035Z,1.5
2023-01-28T03:12:20.389Z,1.3
2023-01-28T03:13:34.736Z,1.6
2023-01-28T03:14:48.075Z,1.2
2023-01-28T03:16:02.369Z,1.4
2023-01-28T03:17:16.770Z,1.7
2023-01-28T03:18:31.097Z,1.9
2023-01-28T03:19:45.381Z,1.3
2023-01-28T03:20:59.658Z,2
2023-01-28T03:22:14.061Z,1.5
2023-01-28T03:23:28.380Z,1.3
2023-01-28T03:24:42.675Z,1.5
2023-01-28T03:25:56.953Z,1.3
2023-01-28T03:27:11.363Z,1.4
2023-01-28T03:28:25.676Z,1.6
2023-01-28T03:29:39.965Z,1.4
2023-01-28T03:30:54.236Z,1.5
2023-01-28T03:32:08.651Z,1.5
2023-01-28T03:33:22.979Z,1.7
2023-01-28T03:34:37.257Z,1.8
2023-01-28T03:35:51.539Z,1.3
2023-01-28T03:37:05.933Z,1.4
2023-01-28T03:39:34.548Z,1.4
2023-01-28T03:40:48.828Z,1.7
2023-01-28T03:42:03.235Z,1.3
2023-01-28T03:43:17.558Z,1.5
2023-01-28T03:44:31.845Z,1.5
2023-01-28T03:45:46.176Z,1.3
2023-01-28T03:47:00.585Z,1.7
2023-01-28T03:48:14.931Z,1.7
2023-01-28T03:49:28.264Z,1.9
2023-01-28T03:50:42.562Z,2.1
2023-01-28T03:51:56.967Z,1.5
2023-01-28T03:53:11.291Z,1.2
2023-01-28T03:54:25.568Z,1.5
2023-01-28T03:55:39.846Z,1.7
2023-01-28T03:56:54.247Z,1.2
2023-01-28T03:58:08.585Z,1.4
2023-01-28T04:00:37.135Z,1.2
2023-01-28T04:01:51.551Z,1.4
2023-01-28T04:03:05.862Z,1.7
2023-01-28T04:04:20.158Z,1.3
2023-01-28T04:05:34.437Z,1.4
2023-01-28T04:06:48.840Z,1.4
2023-01-28T04:08:03.156Z,1.5
2023-01-28T04:09:17.437Z,1.6
2023-01-28T04:10:31.727Z,1.8
2023-01-28T04:11:46.133Z,1.4
2023-01-28T04:13:00.461Z,2.1
2023-01-28T04:14:14.733Z,1.5
2023-01-28T04:15:29.007Z,1.7
2023-01-28T04:16:43.415Z,1.6
2023-01-28T04:17:57.755Z,1.7
2023-01-28T04:19:12.024Z,1.3
2023-01-28T04:20:26.368Z,1.6
2023-01-28T04:21:40.767Z,1.5
2023-01-28T04:22:55.104Z,1.5
2023-01-28T04:24:08.466Z,1.5
2023-01-28T04:25:22.746Z,1.2
2023-01-28T04:26:37.147Z,1.8
2023-01-28T04:27:51.475Z,1.8
2023-01-28T04:29:05.745Z,1.7
2023-01-28T04:30:20.027Z,1.5
2023-01-28T04:31:34.444Z,1.4
2023-01-28T04:32:48.770Z,1.6
2023-01-28T04:34:03.054Z,1
2023-01-28T04:35:17.327Z,2
2023-01-28T04:36:31.732Z,1.4
2023-01-28T04:37:46.054Z,1.7
2023-01-28T04:39:00.329Z,1.8
2023-01-28T04:40:14.611Z,1.2
2023-01-28T04:41:29.031Z,1.7
2023-01-28T04:42:43.349Z,1.5
2023-01-28T04:43:57.640Z,1.2
2023-01-28T04:45:11.915Z,1.3
2023-01-28T04:46:26.324Z,1.1
2023-01-28T04:47:40.640Z,1.4
2023-01-28T04:48:54.922Z,1.6
2023-01-28T04:50:09.198Z,1.2
2023-01-28T04:51:23.621Z,1.5
2023-01-28T04:53:52.208Z,1
2023-01-28T04:55:06.556Z,1.2
2023-01-28T04:57:35.298Z,1.1
2023-01-28T04:58:48.641Z,1.7
2023-01-28T05:00:02.931Z,1.3
2023-01-28T05:01:17.334Z,1.3
2023-01-28T05:02:31.662Z,1.5
2023-01-28T05:03:45.935Z,1.1
2023-01-28T05:05:00.224Z,1.4
2023-01-28T05:06:14.639Z,1.3
2023-01-28T05:07:28.957Z,1.2
2023-01-28T05:08:43.229Z,1.1
2023-01-28T05:09:57.525Z,1.9
2023-01-28T05:11:11.923Z,2.1
2023-01-28T05:12:26.246Z,1.9
2023-01-28T05:13:40.532Z,1.7
2023-01-28T05:14:54.804Z,1.9
2023-01-28T05:16:09.222Z,1.6
2023-01-28T05:17:23.541Z,1.8
2023-01-28T05:18:37.815Z,1.5
2023-01-28T05:19:52.108Z,1.5
2023-01-28T05:21:06.515Z,1.4
2023-01-28T05:22:20.824Z,1.6
2023-01-28T05:23:35.118Z,1.4
2023-01-28T05:24:49.396Z,1.3
2023-01-28T05:26:03.791Z,1.5
2023-01-28T05:27:18.116Z,1.4
2023-01-28T05:28:32.406Z,2
2023-01-28T05:29:46.747Z,1.4
2023-01-28T05:31:01.149Z,1.5
2023-01-28T05:32:15.486Z,1.5
2023-01-28T05:33:28.845Z,1.4
2023-01-28T05:34:43.118Z,1.3
2023-01-28T05:35:57.526Z,1.8
2023-01-28T05:37:11.866Z,1.5
2023-01-28T05:38:26.141Z,1.9
2023-01-28T05:39:40.429Z,1.7
2023-01-28T05:40:54.820Z,1.6
2023-01-28T05:42:09.141Z,1.6
2023-01-28T05:43:23.439Z,1.6
2023-01-28T05:44:37.723Z,1.5
2023-01-28T05:45:52.126Z,1.7
2023-01-28T05:47:06.436Z,1.7
2023-01-28T05:48:20.726Z,1.8
2023-01-28T05:49:35.002Z,1.7
2023-01-28T05:50:49.411Z,1.3
2023-01-28T05:52:03.731Z,1.7
2023-01-28T05:53:18.007Z,1.8
2023-01-28T05:54:32.305Z,1.5
2023-01-28T05:55:46.695Z,1.3
2023-01-28T05:57:01.033Z,2
2023-01-28T05:58:15.304Z,1.9
2023-01-28T05:59:29.581Z,1.3
2023-01-28T06:00:43.960Z,1.7
2023-01-28T06:01:58.279Z,1.7
2023-01-28T06:03:12.552Z,1.6
2023-01-28T06:05:41.315Z,1.9
2023-01-28T06:06:55.638Z,1.2
2023-01-28T06:08:08.996Z,1.6
2023-01-28T06:09:23.277Z,1.4
2023-01-28T06:10:37.636Z,1.6
2023-01-28T06:11:51.952Z,1.5
2023-01-28T06:13:06.252Z,1.5
2023-01-28T06:14:20.532Z,1.4
2023-01-28T06:15:34.869Z,1.7
2023-01-28T06:16:49.191Z,1.3
2023-01-28T06:18:03.487Z,1.6
2023-01-28T06:19:17.757Z,1.9
2023-01-28T06:20:32.177Z,1.8
2023-01-28T06:21:46.405Z,1.4
2023-01-28T06:23:00.638Z,1.2
2023-01-28T06:24:14.864Z,1.7
2023-01-28T06:25:29.100Z,1.7
2023-01-28T06:26:43.397Z,1.9
2023-01-28T06:27:57.000Z,1.3
2023-01-28T06:29:11.862Z,1.6
2023-01-28T06:30:26.087Z,1.4
2023-01-28T06:31:40.304Z,1.7
2023-01-28T06:32:54.602Z,1.8
2023-01-28T06:34:08.851Z,1.5
2023-01-28T06:35:23.123Z,1.7
2023-01-28T06:36:37.451Z,1.5
2023-01-28T06:37:51.729Z,1.5
2023-01-28T06:39:06.211Z,1.6
2023-01-28T06:40:20.551Z,2
2023-01-28T06:41:33.833Z,1.5
2023-01-28T06:42:48.121Z,1.8
2023-01-28T06:44:02.479Z,1.7
2023-01-28T06:45:16.721Z,1.5
2023-01-28T06:46:30.952Z,2
2023-01-28T06:47:45.177Z,1.5
2023-01-28T06:48:59.416Z,1.4
2023-01-28T06:50:13.717Z,2
2023-01-28T06:51:27.947Z,1.5
2023-01-28T06:52:42.180Z,1.6
2023-01-28T06:53:56.406Z,1.7
2023-01-28T06:55:10.637Z,1.7
2023-01-28T06:56:24.941Z,1.7
2023-01-28T06:57:39.173Z,1.7
2023-01-28T06:58:53.398Z,1.9
2023-01-28T07:00:07.631Z,1.8
2023-01-28T07:01:21.857Z,1.9
2023-01-28T07:03:50.388Z,1.7
2023-01-28T07:05:04.627Z,1.6
2023-01-28T07:06:18.861Z,1.5
2023-01-28T07:07:33.081Z,1.8
2023-01-28T07:08:47.389Z,1.6
2023-01-28T07:10:01.628Z,1.7
2023-01-28T07:11:15.843Z,1.8
2023-01-28T07:12:30.212Z,1.8
2023-01-28T07:13:44.446Z,1.8
2023-01-28T07:14:58.746Z,1.9
2023-01-28T07:17:27.210Z,1.8
2023-01-28T07:18:41.434Z,1.4
2023-01-28T07:19:55.666Z,1.4
2023-01-28T07:21:09.960Z,1.7
2023-01-28T07:22:24.204Z,2
2023-01-28T07:23:38.438Z,1.8
2023-01-28T07:24:52.664Z,1.8
2023-01-28T07:26:06.894Z,1.6
2023-01-28T07:27:21.191Z,1.4
2023-01-28T07:28:35.427Z,1.7
2023-01-28T07:29:49.658Z,1.6
2023-01-28T07:31:03.885Z,1.9
2023-01-28T07:32:18.107Z,1.7
2023-01-28T07:33:32.409Z,1.8
2023-01-28T07:34:46.660Z,1.5
2023-01-28T07:36:00.888Z,2.1
2023-01-28T07:37:15.098Z,1.5
2023-01-28T07:38:29.334Z,1.7
2023-01-28T07:39:43.626Z,2
2023-01-28T07:40:57.877Z,2.3
2023-01-28T07:42:12.110Z,1.5
2023-01-28T07:43:26.389Z,2.2
2023-01-28T07:44:39.689Z,1.8
2023-01-28T07:45:53.916Z,2.7
2023-01-28T07:47:08.150Z,2.4
2023-01-28T07:48:22.370Z,1.5
2023-01-28T07:49:36.608Z,2.2
2023-01-28T07:50:50.903Z,2.1
2023-01-28T07:52:05.149Z,1.8
2023-01-28T07:53:19.382Z,2
2023-01-28T07:54:33.605Z,1.8
2023-01-28T07:55:47.820Z,1.8
2023-01-28T07:57:02.124Z,1.7
2023-01-28T07:58:16.367Z,2.5
2023-01-28T08:00:44.822Z,1.7
2023-01-28T08:01:59.053Z,2.2
2023-01-28T08:03:13.356Z,1.9
2023-01-28T08:04:27.589Z,1.5
2023-01-28T08:05:41.824Z,2.4
2023-01-28T08:08:10.276Z,2
2023-01-28T08:09:24.561Z,2
2023-01-28T08:10:38.810Z,1.5
2023-01-28T08:11:53.034Z,1.4
2023-01-28T08:13:07.259Z,2.1
2023-01-28T08:14:21.493Z,2.2
2023-01-28T08:15:35.848Z,2
2023-01-28T08:16:50.126Z,2.1
2023-01-28T08:18:03.488Z,1.5
2023-01-28T08:19:16.826Z,2.2
2023-01-28T08:20:31.108Z,1.7
2023-01-28T08:21:45.386Z,2.2
2023-01-28T08:22:58.745Z,1.9
2023-01-28T08:24:13.043Z,2.1
2023-01-28T08:25:27.316Z,2
2023-01-28T08:26:40.619Z,1.8
2023-01-28T08:27:54.839Z,2
2023-01-28T08:29:09.141Z,2.3
2023-01-28T08:30:23.377Z,2.1
2023-01-28T08:31:37.609Z,1.6
2023-01-28T08:32:51.844Z,1.7
2023-01-28T08:34:06.061Z,2
2023-01-28T08:35:20.374Z,1.9
2023-01-28T08:36:34.610Z,1.8
2023-01-28T08:37:48.836Z,1.5
2023-01-28T08:39:03.056Z,2.2
2023-01-28T08:40:17.287Z,1.4
2023-01-28T08:41:31.582Z,1.6
2023-01-28T08:44:00.060Z,1.5
2023-01-28T08:45:14.285Z,1.7
2023-01-28T08:46:28.513Z,2.4
2023-01-28T08:47:42.812Z,2
2023-01-28T08:48:57.051Z,2.1
2023-01-28T08:50:11.284Z,1.9
2023-01-28T08:51:25.508Z,1.8
2023-01-28T08:52:39.725Z,2.1
2023-01-28T08:53:54.025Z,1.6
2023-01-28T08:55:08.282Z,1.9
2023-01-28T08:56:22.497Z,1.8
2023-01-28T08:57:36.792Z,2
2023-01-28T09:00:04.397Z,2.2
2023-01-28T09:01:18.682Z,1.7
2023-01-28T09:02:31.992Z,1.4
2023-01-28T09:03:46.279Z,2
2023-01-28T09:05:00.531Z,2.5
2023-01-28T09:06:14.750Z,2.5
2023-01-28T09:07:28.976Z,2.4
2023-01-28T09:08:43.201Z,2.1
2023-01-28T09:09:57.505Z,2.2
2023-01-28T09:11:11.751Z,1.9
2023-01-28T09:13:40.196Z,1.9
2023-01-28T09:16:08.731Z,2.5
2023-01-28T09:17:22.966Z,1.6
2023-01-28T09:18:37.203Z,1.8
2023-01-28T09:19:51.428Z,2.3
2023-01-28T09:21:05.643Z,1.8
2023-01-28T09:22:19.957Z,1.9
2023-01-28T09:23:34.182Z,2.3
2023-01-28T09:24:48.419Z,1.8
2023-01-28T09:26:02.655Z,2.2
2023-01-28T09:27:16.870Z,1.9
2023-01-28T09:28:31.170Z,2.1
2023-01-28T09:29:45.410Z,2.5
2023-01-28T09:30:59.633Z,2.2
2023-01-28T09:32:13.861Z,1.8
2023-01-28T09:33:28.164Z,1.7
2023-01-28T09:34:42.447Z,2.3
2023-01-28T09:35:56.735Z,1.9
2023-01-28T09:37:10.091Z,2.6
2023-01-28T09:38:23.428Z,2.3
2023-01-28T09:39:37.712Z,2
2023-01-28T09:40:51.993Z,2.8
2023-01-28T09:42:05.356Z,2.2
2023-01-28T09:43:19.646Z,2.3
2023-01-28T09:44:33.000Z,2.6
2023-01-28T09:45:47.255Z,2.3
2023-01-28T09:47:00.556Z,2
2023-01-28T09:48:14.807Z,2
2023-01-28T09:49:29.026Z,2.8
2023-01-28T09:50:43.385Z,2.8
2023-01-28T09:51:57.601Z,2.4
2023-01-28T09:53:11.899Z,2.3
2023-01-28T09:54:26.139Z,2.9
2023-01-28T09:55:40.369Z,2.9
2023-01-28T09:56:54.593Z,2.2
2023-01-28T09:58:08.831Z,2.2
2023-01-28T09:59:23.123Z,2.5
2023-01-28T10:00:37.374Z,3.2
2023-01-28T10:01:51.591Z,2.8
2023-01-28T10:03:05.830Z,3.1
2023-01-28T10:04:20.047Z,2.6
2023-01-28T10:05:34.347Z,3.1
2023-01-28T10:06:48.585Z,3.1
2023-01-28T10:08:02.813Z,2.5
2023-01-28T10:09:17.046Z,2.4
2023-01-28T10:10:31.277Z,2.2
2023-01-28T10:11:45.580Z,2.2
2023-01-28T10:14:14.046Z,3
2023-01-28T10:15:28.264Z,2.4
2023-01-28T10:16:42.496Z,2.3
2023-01-28T10:17:56.795Z,2.3
2023-01-28T10:19:11.044Z,2.2
2023-01-28T10:20:25.270Z,2.6
2023-01-28T10:21:39.483Z,2.2
2023-01-28T10:22:53.706Z,2.1
2023-01-28T10:24:08.023Z,2.1
2023-01-28T10:26:36.479Z,2.4
2023-01-28T10:27:50.716Z,2
2023-01-28T10:29:04.932Z,3.5
2023-01-28T10:30:19.250Z,3
2023-01-28T10:31:33.491Z,2.4
2023-01-28T10:32:47.714Z,2.6
2023-01-28T10:34:01.942Z,2.7
2023-01-28T10:35:16.159Z,2.9
2023-01-28T10:36:30.529Z,2.7
2023-01-28T10:37:44.797Z,2.7
2023-01-28T10:38:58.135Z,2.5
2023-01-28T10:40:12.417Z,2.4
2023-01-28T10:41:26.714Z,2.6
2023-01-28T10:42:41.008Z,2.6
2023-01-28T10:43:54.297Z,2.7
2023-01-28T10:45:08.526Z,2.1
2023-01-28T10:46:22.838Z,2.3
2023-01-28T10:47:37.064Z,2
2023-01-28T10:48:51.298Z,2.1
2023-01-28T10:50:05.519Z,1.9
2023-01-28T10:51:19.742Z,2.8
2023-01-28T10:52:34.054Z,2.1
2023-01-28T10:55:02.527Z,2.5
2023-01-28T10:56:16.742Z,1.8
2023-01-28T10:57:30.976Z,2.7
2023-01-28T10:58:45.281Z,2.2
2023-01-28T10:59:59.513Z,2.4
2023-01-28T11:01:13.735Z,3.1
2023-01-28T11:02:27.965Z,3.3
2023-01-28T11:03:42.197Z,2.7
2023-01-28T11:04:56.506Z,2.5
2023-01-28T11:06:10.734Z,2.4
2023-01-28T11:07:24.964Z,2.3
2023-01-28T11:08:39.191Z,2.6
2023-01-28T11:09:53.415Z,2.5
2023-01-28T11:12:21.964Z,2.7
2023-01-28T11:13:36.187Z,1.9
2023-01-28T11:14:50.473Z,2.9
2023-01-28T11:16:04.766Z,2.7
2023-01-28T11:17:19.059Z,2.6
2023-01-28T11:18:33.347Z,3.1
2023-01-28T11:19:46.688Z,2.4
2023-01-28T11:22:15.280Z,2.9
2023-01-28T11:23:29.564Z,2.6
2023-01-28T11:24:42.893Z,3.2
2023-01-28T11:25:57.187Z,2.5
2023-01-28T11:27:11.478Z,3
2023-01-28T11:28:25.753Z,2.6
2023-01-28T11:29:39.108Z,2.7
2023-01-28T11:30:53.402Z,3
2023-01-28T11:32:07.706Z,3
2023-01-28T11:33:21.975Z,3
2023-01-28T11:34:35.268Z,2.9
2023-01-28T11:35:49.502Z,2.5
2023-01-28T11:37:03.804Z,3.1
2023-01-28T11:38:18.039Z,2.8
2023-01-28T11:39:32.268Z,3.8
2023-01-28T11:40:46.500Z,3.1
2023-01-28T11:42:00.729Z,4.2
2023-01-28T11:43:15.031Z,3
2023-01-28T11:45:43.486Z,3.4
2023-01-28T11:46:57.732Z,3.5
2023-01-28T11:48:11.940Z,3.1
2023-01-28T11:50:40.497Z,3.2
2023-01-28T11:51:54.719Z,3.2
2023-01-28T11:54:23.162Z,2.7
2023-01-28T11:55:37.468Z,3.4
2023-01-28T11:56:51.715Z,3
2023-01-28T11:58:05.940Z,3.8
2023-01-28T11:59:20.161Z,3.8
2023-01-28T12:00:34.396Z,3.3
2023-01-28T12:01:48.692Z,3.2
2023-01-28T12:03:02.927Z,2.9
2023-01-28T12:04:17.172Z,2.9
2023-01-28T12:05:31.441Z,3.7
2023-01-28T12:06:44.782Z,3.3
2023-01-28T12:07:59.075Z,3.6
2023-01-28T12:09:13.355Z,3.9
2023-01-28T12:10:27.643Z,3.5
2023-01-28T12:11:40.919Z,3.2
2023-01-28T12:12:55.176Z,3.3
2023-01-28T12:14:09.392Z,2.9
2023-01-28T12:15:23.614Z,2.4
2023-01-28T12:16:37.843Z,2.6
2023-01-28T12:17:52.149Z,2.8
2023-01-28T12:19:06.381Z,3.1
2023-01-28T12:21:34.965Z,3.2
2023-01-28T12:22:49.199Z,3.8
2023-01-28T12:24:03.486Z,2.9
2023-01-28T12:25:17.734Z,2.3
2023-01-28T12:26:31.955Z,3.3
2023-01-28T12:27:46.185Z,3.9
2023-01-28T12:29:00.404Z,2.5
2023-01-28T12:30:14.721Z,3.6
2023-01-28T12:31:28.953Z,2.3
2023-01-28T12:32:43.193Z,2.5
2023-01-28T12:33:57.417Z,2.8
2023-01-28T12:35:11.645Z,3.1
2023-01-28T12:37:40.180Z,3.4
2023-01-28T12:38:54.402Z,3
2023-01-28T12:40:08.623Z,2.9
2023-01-28T12:41:22.848Z,4.4
2023-01-28T12:42:37.155Z,2.8
2023-01-28T12:43:51.407Z,2.5
2023-01-28T12:45:05.627Z,2.7
2023-01-28T12:46:19.857Z,2.5
2023-01-28T12:47:34.085Z,2.6
2023-01-28T12:50:02.614Z,2.1
2023-01-28T12:51:16.838Z,2.1
2023-01-28T12:52:31.066Z,2.4
2023-01-28T12:53:45.308Z,2.5
2023-01-28T12:54:59.607Z,2.5
2023-01-28T12:56:13.844Z,3.1
2023-01-28T12:57:28.079Z,2.5
2023-01-28T12:58:42.286Z,2.2
2023-01-28T12:59:56.532Z,2.7
2023-01-28T13:01:10.814Z,2.6
2023-01-28T13:02:25.073Z,2.3
2023-01-28T13:03:39.284Z,1.9
2023-01-28T13:04:53.527Z,2.4
2023-01-28T13:06:07.802Z,2.2
2023-01-28T13:07:22.101Z,2.5
2023-01-28T13:08:36.380Z,2.3
2023-01-28T13:09:49.681Z,2.7
2023-01-28T13:11:03.918Z,2.8
2023-01-28T13:12:18.200Z,2.5
2023-01-28T13:13:32.457Z,2.4
2023-01-28T13:14:46.669Z,2.4
2023-01-28T13:16:00.908Z,3
2023-01-28T13:17:15.123Z,2.5
2023-01-28T13:18:29.429Z,2.4
2023-01-28T13:19:43.664Z,2.2
2023-01-28T13:20:57.895Z,3.4
2023-01-28T13:22:12.132Z,2.9
2023-01-28T13:23:26.358Z,2.8
2023-01-28T13:24:40.665Z,2.9
2023-01-28T13:25:54.892Z,3.1
2023-01-28T13:27:09.124Z,3
2023-01-28T13:28:23.353Z,2.8
2023-01-28T13:29:37.573Z,3
2023-01-28T13:30:51.871Z,3.4
2023-01-28T13:32:06.119Z,2.8
2023-01-28T13:33:20.347Z,2.6
2023-01-28T13:34:34.567Z,2.8
2023-01-28T13:35:48.798Z,2.8
2023-01-28T13:37:03.094Z,2.8
2023-01-28T13:38:17.345Z,2.9
2023-01-28T13:39:31.577Z,3.5
2023-01-28T13:40:45.860Z,2.6
2023-01-28T13:41:59.145Z,2.6
2023-01-28T13:43:13.386Z,3.4
2023-01-28T13:44:27.617Z,2.2
2023-01-28T13:46:56.068Z,2.9
2023-01-28T13:48:10.373Z,2.6
2023-01-28T13:49:24.605Z,2.9
2023-01-28T13:50:38.842Z,2.2
2023-01-28T13:51:53.066Z,2.3
2023-01-28T13:53:07.294Z,1.8
2023-01-28T13:54:21.589Z,2.5
2023-01-28T13:55:35.831Z,1.7
2023-01-28T13:56:50.000Z,2.9
2023-01-28T13:58:04.287Z,2.7
2023-01-28T13:59:18.518Z,4
2023-01-28T14:00:32.812Z,3.2
2023-01-28T14:01:47.056Z,2.6
2023-01-28T14:03:01.277Z,2.5
2023-01-28T14:04:15.512Z,2.2
2023-01-28T14:05:29.745Z,2.8
2023-01-28T14:06:44.029Z,1.9
2023-01-28T14:07:58.283Z,2.4
2023-01-28T14:09:12.507Z,3.1
2023-01-28T14:10:26.738Z,2.7
2023-01-28T14:12:55.318Z,2.7
2023-01-28T14:14:09.609Z,2.3
2023-01-28T14:15:22.951Z,2.7
2023-01-28T14:16:36.301Z,2.9
2023-01-28T14:17:50.574Z,2.4
2023-01-28T14:19:04.955Z,2.1
2023-01-28T14:20:19.170Z,2.7
2023-01-28T14:21:33.403Z,3.2
2023-01-28T14:22:47.705Z,2.9
2023-01-28T14:24:01.942Z,2.6
2023-01-28T14:25:16.180Z,2.9
2023-01-28T14:26:30.395Z,2.3
2023-01-28T14:28:58.933Z,2.7
2023-01-28T14:30:13.162Z,2.8
2023-01-28T14:32:41.629Z,2.6
2023-01-28T14:33:55.855Z,2.5
2023-01-28T14:35:10.141Z,3.1
2023-01-28T14:36:24.400Z,2.6
2023-01-28T14:37:38.627Z,2.9
2023-01-28T14:38:52.842Z,3.4
2023-01-28T14:40:07.066Z,2.5
2023-01-28T14:41:21.370Z,2.5
2023-01-28T14:42:35.604Z,2.8
2023-01-28T14:43:49.842Z,3
2023-01-28T14:45:04.059Z,2.7
2023-01-28T14:46:18.298Z,2.3
2023-01-28T14:47:32.597Z,3
2023-01-28T14:48:46.832Z,2.8
2023-01-28T14:50:01.128Z,2.2
2023-01-28T14:51:14.450Z,2.9
2023-01-28T14:52:28.766Z,2.7
2023-01-28T14:53:43.043Z,2.7
2023-01-28T14:54:56.345Z,2.4
2023-01-28T14:56:10.556Z,2.8
2023-01-28T14:57:24.861Z,2.5
2023-01-28T14:58:39.098Z,2.4
2023-01-28T14:59:53.326Z,2.5
2023-01-28T15:01:07.555Z,1.9
2023-01-28T15:02:21.776Z,2.9
2023-01-28T15:03:36.089Z,2.8
2023-01-28T15:04:50.319Z,2.7
2023-01-28T15:06:04.564Z,3
2023-01-28T15:07:18.780Z,2.6
2023-01-28T15:08:33.012Z,2.7
2023-01-28T15:09:47.317Z,3.4
2023-01-28T15:11:01.548Z,2.7
2023-01-28T15:12:15.775Z,2
2023-01-28T15:13:29.998Z,2.5
2023-01-28T15:14:44.226Z,2.5
2023-01-28T15:15:58.541Z,3.1
2023-01-28T15:17:12.769Z,2.3
2023-01-28T15:18:26.994Z,2.6
2023-01-28T15:20:55.464Z,3.2
2023-01-28T15:22:09.752Z,2.2
2023-01-28T15:23:23.990Z,2.5
2023-01-28T15:24:38.225Z,2.6
2023-01-28T15:25:52.501Z,2.4
2023-01-28T15:27:05.844Z,3.4
2023-01-28T15:28:20.131Z,2.8
2023-01-28T15:29:33.426Z,2.1
2023-01-28T15:30:47.644Z,2.6
2023-01-28T15:32:01.957Z,3
2023-01-28T15:33:16.195Z,2.7
2023-01-28T15:34:30.415Z,3
2023-01-28T15:35:44.634Z,3.7
2023-01-28T15:36:58.864Z,3.3
2023-01-28T15:38:13.179Z,3.1
2023-01-28T15:39:27.423Z,3.1
2023-01-28T15:40:41.634Z,2.5
2023-01-28T15:41:55.865Z,2.6
2023-01-28T15:43:10.098Z,2.9
2023-01-28T15:44:24.398Z,2.4
2023-01-28T15:45:38.640Z,2.4
2023-01-28T15:46:52.868Z,2.6
2023-01-28T15:48:07.086Z,2.6
2023-01-28T15:49:21.316Z,3.1
2023-01-28T15:50:35.632Z,2.9
2023-01-28T15:51:49.857Z,2.8
2023-01-28T15:53:04.077Z,3
2023-01-28T15:54:18.311Z,2.8
2023-01-28T15:55:32.528Z,3.3
2023-01-28T15:56:46.831Z,2.9
2023-01-28T15:58:01.082Z,4
2023-01-28T15:59:15.307Z,3.6
2023-01-28T16:00:29.592Z,3.2
2023-01-28T16:01:42.919Z,3.4
2023-01-28T16:02:57.200Z,2.6
2023-01-28T16:04:11.492Z,2.6
2023-01-28T16:05:24.780Z,2.8
2023-01-28T16:07:53.333Z,2.7
2023-01-28T16:09:07.553Z,2.3
2023-01-28T16:10:21.784Z,3
2023-01-28T16:11:36.011Z,3.1
2023-01-28T16:12:50.312Z,2.5
2023-01-28T16:14:04.542Z,2.6
2023-01-28T16:15:18.783Z,3
2023-01-28T16:16:32.996Z,2.9
2023-01-28T16:17:47.226Z,1.9
2023-01-28T16:19:01.533Z,1.9
2023-01-28T16:20:15.773Z,2.7
2023-01-28T16:21:29.991Z,3.1
2023-01-28T16:22:44.224Z,3.1
2023-01-28T16:23:58.458Z,3.2
2023-01-28T16:25:12.745Z,3
2023-01-28T16:27:41.216Z,3.3
2023-01-28T16:28:55.452Z,2.9
2023-01-28T16:30:09.677Z,2.6
2023-01-28T16:31:23.963Z,2.8
2023-01-28T16:32:38.215Z,2.7
2023-01-28T16:33:52.444Z,3.6
2023-01-28T16:36:20.946Z,3.7
2023-01-28T16:37:35.254Z,3.7
2023-01-28T16:38:49.546Z,3.2
2023-01-28T16:40:03.875Z,3.9
2023-01-28T16:41:17.227Z,3.4
2023-01-28T16:42:31.644Z,2.9
2023-01-28T16:43:45.886Z,3.9
2023-01-28T16:45:00.167Z,3.1
2023-01-28T16:46:14.483Z,3.5
2023-01-28T16:47:28.774Z,3.7
2023-01-28T16:48:43.176Z,3
2023-01-28T16:49:57.497Z,3.2
2023-01-28T16:51:11.774Z,2.8
2023-01-28T16:52:26.054Z,2.9
2023-01-28T16:53:40.474Z,2.6
2023-01-28T16:54:54.757Z,3.7
2023-01-28T16:56:08.982Z,3.4
2023-01-28T16:57:23.210Z,5.1
2023-01-28T16:58:37.447Z,7.5
2023-01-28T16:59:51.752Z,7.4
2023-01-28T17:01:05.991Z,7.3
2023-01-28T17:02:20.227Z,6.6
2023-01-28T17:03:34.455Z,4.6
2023-01-28T17:04:48.677Z,3.5
2023-01-28T17:06:02.972Z,3.9
2023-01-28T17:07:17.216Z,4.9
2023-01-28T17:08:31.452Z,3.9
2023-01-28T17:09:45.671Z,3.8
2023-01-28T17:12:14.268Z,3.3
2023-01-28T17:13:28.598Z,3.1
2023-01-28T17:14:41.943Z,3.3
2023-01-28T17:15:56.289Z,4.9
2023-01-28T17:17:10.697Z,4.3
2023-01-28T17:19:39.370Z,4.8
2023-01-28T17:20:52.711Z,3.6
2023-01-28T17:22:07.126Z,4.6
2023-01-28T17:23:21.444Z,3.5
2023-01-28T17:24:35.685Z,4.1
2023-01-28T17:25:49.975Z,3.8
2023-01-28T17:27:04.387Z,3.7
2023-01-28T17:28:18.696Z,4.5
2023-01-28T17:29:32.983Z,3.9
2023-01-28T17:30:47.278Z,3.6
2023-01-28T17:32:01.548Z,4.9
2023-01-28T17:33:15.908Z,3.8
2023-01-28T17:34:30.137Z,4.3
2023-01-28T17:35:44.425Z,4
2023-01-28T17:36:58.704Z,4.5
2023-01-28T17:38:13.113Z,4.7
2023-01-28T17:39:27.433Z,5.1
2023-01-28T17:40:41.668Z,4.5
2023-01-28T17:41:55.954Z,4.4
2023-01-28T17:43:10.235Z,5
2023-01-28T17:44:24.651Z,5.5
2023-01-28T17:45:38.962Z,5
2023-01-28T17:46:53.253Z,5.4
2023-01-28T17:48:07.465Z,5.2
2023-01-28T17:49:21.885Z,4.2
2023-01-28T17:50:36.201Z,4.2
2023-01-28T17:51:50.553Z,4.6
2023-01-28T17:53:03.945Z,4.7
2023-01-28T17:54:18.342Z,5.1
2023-01-28T17:55:32.677Z,5.7
2023-01-28T17:56:46.026Z,5.2
2023-01-28T17:58:00.322Z,4.8
2023-01-28T17:59:14.719Z,4.6